sensor_id;sensor_type;location;lat;lon;timestamp;pressure;altitude;pressure_sealevel;temperature;humidity
54854;BME280;40747;49.480;8.658;2022-12-10T00:01:29;99253.59;;;1.40;100.00
54854;BME280;40747;49.480;8.658;2022-12-10T00:03:55;99261.47;;;1.31;100.00
54854;BME280;40747;49.480;8.658;2022-12-10T00:06:22;99265.53;;;1.57;100.00
54854;BME280;40747;49.480;8.658;2022-12-10T00:08:49;99259.25;;;1.76;100.00
54854;BME280;40747;49.480;8.658;2022-12-10T00:11:16;99259.97;;;1.89;100.00
54854;BME280;40747;49.480;8.658;2022-12-10T00:13:43;99262.47;;;1.95;100.00
54854;BME280;40747;49.480;8.658;2022-12-10T00:16:11;99265.03;;;2.00;100.00
54854;BME280;40747;49.480;8.658;2022-12-10T00:18:37;99245.47;;;1.71;100.00
54854;BME280;40747;49.480;8.658;2022-12-10T00:21:05;99249.91;;;1.61;100.00
54854;BME280;40747;49.480;8.658;2022-12-10T00:23:31;99270.13;;;1.33;100.00
54854;BME280;40747;49.480;8.658;2022-12-10T00:26:04;99267.63;;;1.21;100.00
54854;BME280;40747;49.480;8.658;2022-12-10T00:28:30;99257.25;;;1.21;100.00
54854;BME280;40747;49.480;8.658;2022-12-10T00:31:02;99260.47;;;1.43;100.00
54854;BME280;40747;49.480;8.658;2022-12-10T00:33:27;99259.53;;;1.52;100.00
54854;BME280;40747;49.480;8.658;2022-12-10T00:35:52;99259.75;;;1.30;100.00
54854;BME280;40747;49.480;8.658;2022-12-10T00:38:18;99258.91;;;1.26;100.00
54854;BME280;40747;49.480;8.658;2022-12-10T00:40:43;99251.81;;;1.44;100.00
54854;BME280;40747;49.480;8.658;2022-12-10T00:43:08;99263.06;;;1.44;100.00
54854;BME280;40747;49.480;8.658;2022-12-10T00:45:33;99263.19;;;1.32;100.00
54854;BME280;40747;49.480;8.658;2022-12-10T00:47:59;99258.78;;;1.40;100.00
54854;BME280;40747;49.480;8.658;2022-12-10T00:50:24;99265.69;;;1.43;100.00
54854;BME280;40747;49.480;8.658;2022-12-10T00:52:49;99262.00;;;1.61;100.00
54854;BME280;40747;49.480;8.658;2022-12-10T00:55:14;99269.81;;;1.61;100.00
54854;BME280;40747;49.480;8.658;2022-12-10T00:57:40;99271.41;;;1.71;100.00
54854;BME280;40747;49.480;8.658;2022-12-10T01:00:07;99272.03;;;1.93;100.00
54854;BME280;40747;49.480;8.658;2022-12-10T01:02:32;99265.06;;;1.97;100.00
54854;BME280;40747;49.480;8.658;2022-12-10T01:04:57;99265.78;;;2.10;100.00
54854;BME280;40747;49.480;8.658;2022-12-10T01:07:23;99262.44;;;2.00;100.00
54854;BME280;40747;49.480;8.658;2022-12-10T01:09:48;99267.50;;;2.09;99.47
54854;BME280;40747;49.480;8.658;2022-12-10T01:12:13;99255.38;;;2.08;98.90
54854;BME280;40747;49.480;8.658;2022-12-10T01:14:39;99268.19;;;2.24;98.57
54854;BME280;40747;49.480;8.658;2022-12-10T01:17:05;99270.72;;;2.28;98.05
54854;BME280;40747;49.480;8.658;2022-12-10T01:19:32;99272.38;;;2.34;97.82
54854;BME280;40747;49.480;8.658;2022-12-10T01:21:58;99276.75;;;2.31;98.00
54854;BME280;40747;49.480;8.658;2022-12-10T01:24:25;99269.97;;;2.20;98.01
54854;BME280;40747;49.480;8.658;2022-12-10T01:26:51;99274.41;;;2.10;98.55
54854;BME280;40747;49.480;8.658;2022-12-10T01:29:17;99261.72;;;1.87;99.10
54854;BME280;40747;49.480;8.658;2022-12-10T01:31:43;99281.66;;;1.87;99.94
54854;BME280;40747;49.480;8.658;2022-12-10T01:34:11;99286.91;;;1.79;100.00
54854;BME280;40747;49.480;8.658;2022-12-10T01:36:39;99286.91;;;1.80;100.00
54854;BME280;40747;49.480;8.658;2022-12-10T01:39:07;99298.84;;;1.94;99.43
54854;BME280;40747;49.480;8.658;2022-12-10T01:41:41;99295.28;;;2.04;99.10
54854;BME280;40747;49.480;8.658;2022-12-10T01:46:43;99306.44;;;2.12;99.71
54854;BME280;40747;49.480;8.658;2022-12-10T01:49:17;99310.69;;;2.18;99.05
54854;BME280;40747;49.480;8.658;2022-12-10T01:51:47;99312.44;;;2.18;98.37
54854;BME280;40747;49.480;8.658;2022-12-10T01:54:18;99315.03;;;2.16;98.37
54854;BME280;40747;49.480;8.658;2022-12-10T01:56:46;99297.88;;;2.03;98.45
54854;BME280;40747;49.480;8.658;2022-12-10T01:59:13;99300.53;;;1.98;99.35
54854;BME280;40747;49.480;8.658;2022-12-10T02:01:55;99309.97;;;2.05;99.48
54854;BME280;40747;49.480;8.658;2022-12-10T02:04:32;99316.09;;;2.01;99.26
54854;BME280;40747;49.480;8.658;2022-12-10T02:07:24;99316.03;;;2.06;98.99
54854;BME280;40747;49.480;8.658;2022-12-10T02:12:30;99314.41;;;1.99;99.30
54854;BME280;40747;49.480;8.658;2022-12-10T02:15:16;99305.97;;;1.79;100.00
54854;BME280;40747;49.480;8.658;2022-12-10T02:17:48;99310.66;;;1.43;100.00
54854;BME280;40747;49.480;8.658;2022-12-10T02:20:26;99298.03;;;1.03;100.00
54854;BME280;40747;49.480;8.658;2022-12-10T02:23:09;99314.34;;;1.19;100.00
54854;BME280;40747;49.480;8.658;2022-12-10T02:25:48;99300.50;;;1.22;100.00
54854;BME280;40747;49.480;8.658;2022-12-10T02:30:58;99315.78;;;1.50;100.00
54854;BME280;40747;49.480;8.658;2022-12-10T02:33:27;99315.75;;;1.54;100.00
54854;BME280;40747;49.480;8.658;2022-12-10T02:35:53;99312.38;;;1.46;100.00
54854;BME280;40747;49.480;8.658;2022-12-10T02:38:32;99315.88;;;1.40;100.00
54854;BME280;40747;49.480;8.658;2022-12-10T02:41:02;99305.53;;;1.34;100.00
54854;BME280;40747;49.480;8.658;2022-12-10T02:43:30;99314.06;;;1.49;100.00
54854;BME280;40747;49.480;8.658;2022-12-10T02:45:58;99313.19;;;1.50;100.00
54854;BME280;40747;49.480;8.658;2022-12-10T02:48:25;99309.63;;;1.60;100.00
54854;BME280;40747;49.480;8.658;2022-12-10T02:50:51;99305.22;;;1.67;100.00
54854;BME280;40747;49.480;8.658;2022-12-10T02:53:16;99308.06;;;1.43;100.00
54854;BME280;40747;49.480;8.658;2022-12-10T02:56:08;99305.75;;;1.14;100.00
54854;BME280;40747;49.480;8.658;2022-12-10T02:58:54;99293.97;;;0.71;100.00
54854;BME280;40747;49.480;8.658;2022-12-10T03:01:49;99299.22;;;0.62;100.00
54854;BME280;40747;49.480;8.658;2022-12-10T03:06:57;99299.19;;;0.63;100.00
54854;BME280;40747;49.480;8.658;2022-12-10T03:09:31;99293.09;;;0.74;100.00
54854;BME280;40747;49.480;8.658;2022-12-10T03:12:02;99295.72;;;0.69;100.00
54854;BME280;40747;49.480;8.658;2022-12-10T03:14:32;99300.84;;;0.74;100.00
54854;BME280;40747;49.480;8.658;2022-12-10T03:17:00;99293.06;;;0.78;100.00
54854;BME280;40747;49.480;8.658;2022-12-10T03:19:35;99293.88;;;0.84;100.00
54854;BME280;40747;49.480;8.658;2022-12-10T03:22:03;99293.78;;;0.94;100.00
54854;BME280;40747;49.480;8.658;2022-12-10T03:24:30;99292.88;;;1.00;100.00
54854;BME280;40747;49.480;8.658;2022-12-10T03:26:57;99293.56;;;1.22;100.00
54854;BME280;40747;49.480;8.658;2022-12-10T03:29:26;99286.63;;;1.23;100.00
54854;BME280;40747;49.480;8.658;2022-12-10T03:31:54;99296.00;;;1.41;100.00
54854;BME280;40747;49.480;8.658;2022-12-10T03:34:20;99291.75;;;1.30;100.00
54854;BME280;40747;49.480;8.658;2022-12-10T03:36:47;99295.31;;;1.19;100.00
54854;BME280;40747;49.480;8.658;2022-12-10T03:39:14;99295.72;;;0.68;100.00
54854;BME280;40747;49.480;8.658;2022-12-10T03:41:39;99287.19;;;0.48;100.00
54854;BME280;40747;49.480;8.658;2022-12-10T03:44:04;99293.25;;;0.49;100.00
54854;BME280;40747;49.480;8.658;2022-12-10T03:46:30;99286.31;;;0.51;100.00
54854;BME280;40747;49.480;8.658;2022-12-10T03:49:02;99290.66;;;0.46;100.00
54854;BME280;40747;49.480;8.658;2022-12-10T03:51:27;99287.25;;;0.41;100.00
54854;BME280;40747;49.480;8.658;2022-12-10T03:53:53;99293.28;;;0.47;100.00
54854;BME280;40747;49.480;8.658;2022-12-10T03:56:19;99294.13;;;0.43;100.00
54854;BME280;40747;49.480;8.658;2022-12-10T03:58:45;99298.41;;;0.55;100.00
54854;BME280;40747;49.480;8.658;2022-12-10T04:01:10;99291.38;;;0.71;100.00
54854;BME280;40747;49.480;8.658;2022-12-10T04:03:37;99291.22;;;0.91;100.00
54854;BME280;40747;49.480;8.658;2022-12-10T04:06:10;99280.94;;;0.79;100.00
54854;BME280;40747;49.480;8.658;2022-12-10T04:08:35;99279.06;;;1.01;100.00
54854;BME280;40747;49.480;8.658;2022-12-10T04:11:05;99299.59;;;1.23;100.00
54854;BME280;40747;49.480;8.658;2022-12-10T04:13:33;99296.19;;;1.16;100.00
54854;BME280;40747;49.480;8.658;2022-12-10T04:16:17;99304.09;;;1.02;100.00
54854;BME280;40747;49.480;8.658;2022-12-10T04:18:53;99300.72;;;0.94;100.00
54854;BME280;40747;49.480;8.658;2022-12-10T04:21:19;99302.63;;;0.72;100.00
54854;BME280;40747;49.480;8.658;2022-12-10T04:24:03;99302.59;;;0.75;100.00
54854;BME280;40747;49.480;8.658;2022-12-10T04:26:46;99296.63;;;0.62;100.00
54854;BME280;40747;49.480;8.658;2022-12-10T04:29:22;99307.78;;;0.70;100.00
54854;BME280;40747;49.480;8.658;2022-12-10T04:31:48;99295.69;;;0.72;100.00
54854;BME280;40747;49.480;8.658;2022-12-10T04:34:14;99305.16;;;0.79;100.00
54854;BME280;40747;49.480;8.658;2022-12-10T04:36:39;99309.44;;;0.80;100.00
54854;BME280;40747;49.480;8.658;2022-12-10T04:39:04;99312.00;;;0.87;100.00
54854;BME280;40747;49.480;8.658;2022-12-10T04:41:30;99306.06;;;0.72;100.00
54854;BME280;40747;49.480;8.658;2022-12-10T04:43:55;99304.31;;;0.74;100.00
54854;BME280;40747;49.480;8.658;2022-12-10T04:46:20;99312.00;;;0.87;100.00
54854;BME280;40747;49.480;8.658;2022-12-10T04:48:45;99318.00;;;0.92;100.00
54854;BME280;40747;49.480;8.658;2022-12-10T04:51:11;99301.56;;;0.97;100.00
54854;BME280;40747;49.480;8.658;2022-12-10T04:53:36;99317.06;;;1.02;100.00
54854;BME280;40747;49.480;8.658;2022-12-10T04:56:01;99321.31;;;1.11;100.00
54854;BME280;40747;49.480;8.658;2022-12-10T04:58:30;99305.94;;;0.88;100.00
54854;BME280;40747;49.480;8.658;2022-12-10T05:01:07;99327.44;;;1.02;100.00
54854;BME280;40747;49.480;8.658;2022-12-10T05:03:34;99318.13;;;0.79;100.00
54854;BME280;40747;49.480;8.658;2022-12-10T05:06:02;99327.53;;;0.88;100.00
54854;BME280;40747;49.480;8.658;2022-12-10T05:08:27;99329.38;;;0.72;100.00
54854;BME280;40747;49.480;8.658;2022-12-10T05:10:53;99325.06;;;0.71;100.00
54854;BME280;40747;49.480;8.658;2022-12-10T05:13:18;99336.31;;;0.70;100.00
54854;BME280;40747;49.480;8.658;2022-12-10T05:15:43;99336.31;;;0.73;100.00
54854;BME280;40747;49.480;8.658;2022-12-10T05:18:08;99338.81;;;0.82;100.00
54854;BME280;40747;49.480;8.658;2022-12-10T05:20:34;99326.00;;;0.61;100.00
54854;BME280;40747;49.480;8.658;2022-12-10T05:22:59;99339.78;;;0.68;100.00
54854;BME280;40747;49.480;8.658;2022-12-10T05:25:43;99349.31;;;0.65;100.00
54854;BME280;40747;49.480;8.658;2022-12-10T05:28:21;99351.94;;;0.56;100.00
54854;BME280;40747;49.480;8.658;2022-12-10T05:30:47;99335.66;;;0.37;100.00
54854;BME280;40747;49.480;8.658;2022-12-10T05:33:12;99358.78;;;0.68;100.00
54854;BME280;40747;49.480;8.658;2022-12-10T05:35:38;99354.41;;;0.78;100.00
54854;BME280;40747;49.480;8.658;2022-12-10T05:38:03;99359.44;;;0.98;100.00
54854;BME280;40747;49.480;8.658;2022-12-10T05:40:30;99366.28;;;1.08;100.00
54854;BME280;40747;49.480;8.658;2022-12-10T05:42:56;99362.78;;;1.12;100.00
54854;BME280;40747;49.480;8.658;2022-12-10T05:45:21;99372.41;;;1.00;100.00
54854;BME280;40747;49.480;8.658;2022-12-10T05:47:46;99371.53;;;1.02;100.00
54854;BME280;40747;49.480;8.658;2022-12-10T05:50:12;99368.03;;;1.08;100.00
54854;BME280;40747;49.480;8.658;2022-12-10T05:52:37;99372.34;;;1.07;100.00
54854;BME280;40747;49.480;8.658;2022-12-10T05:55:03;99369.69;;;1.17;100.00
54854;BME280;40747;49.480;8.658;2022-12-10T05:57:28;99368.75;;;1.28;100.00
54854;BME280;40747;49.480;8.658;2022-12-10T05:59:53;99368.81;;;1.16;99.92
54854;BME280;40747;49.480;8.658;2022-12-10T06:02:18;99361.28;;;0.85;100.00
54854;BME280;40747;49.480;8.658;2022-12-10T06:04:44;99377.78;;;0.73;100.00
54854;BME280;40747;49.480;8.658;2022-12-10T06:07:09;99373.50;;;0.61;100.00
54854;BME280;40747;49.480;8.658;2022-12-10T06:09:34;99381.31;;;0.55;100.00
54854;BME280;40747;49.480;8.658;2022-12-10T06:11:59;99379.59;;;0.56;100.00
54854;BME280;40747;49.480;8.658;2022-12-10T06:14:25;99388.22;;;0.55;100.00
54854;BME280;40747;49.480;8.658;2022-12-10T06:16:50;99383.06;;;0.47;100.00
54854;BME280;40747;49.480;8.658;2022-12-10T06:19:15;99368.50;;;0.27;100.00
54854;BME280;40747;49.480;8.658;2022-12-10T06:21:40;99392.63;;;0.36;100.00
54854;BME280;40747;49.480;8.658;2022-12-10T06:24:06;99396.13;;;0.28;100.00
54854;BME280;40747;49.480;8.658;2022-12-10T06:26:31;99391.81;;;0.32;100.00
54854;BME280;40747;49.480;8.658;2022-12-10T06:28:57;99393.50;;;0.36;100.00
54854;BME280;40747;49.480;8.658;2022-12-10T06:31:22;99388.31;;;0.36;100.00
54854;BME280;40747;49.480;8.658;2022-12-10T06:33:48;99392.69;;;0.23;100.00
54854;BME280;40747;49.480;8.658;2022-12-10T06:36:15;99403.03;;;0.25;100.00
54854;BME280;40747;49.480;8.658;2022-12-10T06:38:41;99396.16;;;0.10;100.00
54854;BME280;40747;49.480;8.658;2022-12-10T06:41:09;99412.56;;;0.20;100.00
54854;BME280;40747;49.480;8.658;2022-12-10T06:43:35;99417.75;;;0.15;100.00
54854;BME280;40747;49.480;8.658;2022-12-10T06:46:08;99412.53;;;0.26;100.00
54854;BME280;40747;49.480;8.658;2022-12-10T06:48:33;99409.97;;;0.18;100.00
54854;BME280;40747;49.480;8.658;2022-12-10T06:50:59;99414.28;;;0.11;100.00
54854;BME280;40747;49.480;8.658;2022-12-10T06:53:24;99425.47;;;0.24;100.00
54854;BME280;40747;49.480;8.658;2022-12-10T06:55:50;99418.63;;;0.11;100.00
54854;BME280;40747;49.480;8.658;2022-12-10T06:58:15;99417.78;;;0.10;100.00
54854;BME280;40747;49.480;8.658;2022-12-10T07:00:40;99413.38;;;0.22;100.00
54854;BME280;40747;49.480;8.658;2022-12-10T07:03:05;99417.72;;;0.16;100.00
54854;BME280;40747;49.480;8.658;2022-12-10T07:05:31;99423.81;;;0.05;100.00
54854;BME280;40747;49.480;8.658;2022-12-10T07:07:56;99419.50;;;0.02;100.00
54854;BME280;40747;49.480;8.658;2022-12-10T07:10:22;99421.19;;;0.14;100.00
54854;BME280;40747;49.480;8.658;2022-12-10T07:12:47;99413.47;;;0.03;100.00
54854;BME280;40747;49.480;8.658;2022-12-10T07:15:12;99426.38;;;0.15;100.00
54854;BME280;40747;49.480;8.658;2022-12-10T07:17:38;99427.25;;;0.14;100.00
54854;BME280;40747;49.480;8.658;2022-12-10T07:20:04;99427.25;;;0.10;100.00
54854;BME280;40747;49.480;8.658;2022-12-10T07:22:29;99443.66;;;0.07;100.00
54854;BME280;40747;49.480;8.658;2022-12-10T07:24:54;99441.94;;;-0.03;100.00
54854;BME280;40747;49.480;8.658;2022-12-10T07:27:20;99454.03;;;-0.02;100.00
54854;BME280;40747;49.480;8.658;2022-12-10T07:29:45;99450.59;;;-0.01;100.00
54854;BME280;40747;49.480;8.658;2022-12-10T07:32:10;99456.59;;;0.07;100.00
54854;BME280;40747;49.480;8.658;2022-12-10T07:34:36;99452.28;;;0.09;100.00
54854;BME280;40747;49.480;8.658;2022-12-10T07:37:01;99450.56;;;-0.03;100.00
54854;BME280;40747;49.480;8.658;2022-12-10T07:39:27;99459.19;;;0.10;100.00
54854;BME280;40747;49.480;8.658;2022-12-10T07:41:53;99455.72;;;0.04;100.00
54854;BME280;40747;49.480;8.658;2022-12-10T07:44:20;99466.13;;;0.05;100.00
54854;BME280;40747;49.480;8.658;2022-12-10T07:46:46;99460.06;;;-0.03;100.00
54854;BME280;40747;49.480;8.658;2022-12-10T07:49:11;99464.38;;;0.01;100.00
54854;BME280;40747;49.480;8.658;2022-12-10T07:51:37;99477.31;;;0.15;100.00
54854;BME280;40747;49.480;8.658;2022-12-10T07:54:02;99473.03;;;0.08;100.00
54854;BME280;40747;49.480;8.658;2022-12-10T07:56:28;99485.09;;;0.10;100.00
54854;BME280;40747;49.480;8.658;2022-12-10T07:58:54;99483.38;;;0.09;100.00
54854;BME280;40747;49.480;8.658;2022-12-10T08:01:22;99495.44;;;0.13;100.00
54854;BME280;40747;49.480;8.658;2022-12-10T08:03:48;99494.56;;;0.18;100.00
54854;BME280;40747;49.480;8.658;2022-12-10T08:06:15;99491.97;;;0.16;100.00
54854;BME280;40747;49.480;8.658;2022-12-10T08:08:42;99492.00;;;0.08;100.00
54854;BME280;40747;49.480;8.658;2022-12-10T08:11:08;99498.03;;;0.18;100.00
54854;BME280;40747;49.480;8.658;2022-12-10T08:13:34;99461.84;;;-0.19;100.00
54854;BME280;40747;49.480;8.658;2022-12-10T08:16:05;99497.16;;;-0.03;100.00
54854;BME280;40747;49.480;8.658;2022-12-10T08:18:31;99503.22;;;-0.07;100.00
54854;BME280;40747;49.480;8.658;2022-12-10T08:20:57;99499.75;;;-0.03;100.00
54854;BME280;40747;49.480;8.658;2022-12-10T08:23:23;99496.34;;;0.00;100.00
54854;BME280;40747;49.480;8.658;2022-12-10T08:25:48;99508.38;;;-0.05;100.00
54854;BME280;40747;49.480;8.658;2022-12-10T08:28:13;99503.22;;;0.03;100.00
54854;BME280;40747;49.480;8.658;2022-12-10T08:30:39;99509.25;;;-0.08;100.00
54854;BME280;40747;49.480;8.658;2022-12-10T08:33:04;99505.81;;;-0.08;100.00
54854;BME280;40747;49.480;8.658;2022-12-10T08:35:29;99493.75;;;-0.22;100.00
54854;BME280;40747;49.480;8.658;2022-12-10T08:37:54;99512.72;;;-0.04;100.00
54854;BME280;40747;49.480;8.658;2022-12-10T08:40:20;99506.66;;;-0.08;100.00
54854;BME280;40747;49.480;8.658;2022-12-10T08:42:45;99511.84;;;-0.03;100.00
54854;BME280;40747;49.480;8.658;2022-12-10T08:45:10;99510.97;;;0.07;100.00
54854;BME280;40747;49.480;8.658;2022-12-10T08:47:35;99510.13;;;0.04;100.00
54854;BME280;40747;49.480;8.658;2022-12-10T08:50:01;99506.66;;;0.12;100.00
54854;BME280;40747;49.480;8.658;2022-12-10T08:52:26;99479.06;;;-0.04;100.00
54854;BME280;40747;49.480;8.658;2022-12-10T08:54:54;99525.63;;;0.25;100.00
54854;BME280;40747;49.480;8.658;2022-12-10T08:57:19;99524.78;;;0.15;100.00
54854;BME280;40747;49.480;8.658;2022-12-10T08:59:44;99526.50;;;0.21;100.00
54854;BME280;40747;49.480;8.658;2022-12-10T09:02:11;99512.69;;;0.24;100.00
54854;BME280;40747;49.480;8.658;2022-12-10T09:04:36;99521.31;;;0.32;100.00
54854;BME280;40747;49.480;8.658;2022-12-10T09:07:01;99523.03;;;0.19;100.00
54854;BME280;40747;49.480;8.658;2022-12-10T09:09:27;99501.47;;;0.14;100.00
54854;BME280;40747;49.480;8.658;2022-12-10T09:11:52;99516.97;;;0.29;100.00
54854;BME280;40747;49.480;8.658;2022-12-10T09:14:17;99507.50;;;0.31;100.00
54854;BME280;40747;49.480;8.658;2022-12-10T09:16:42;99517.84;;;0.33;100.00
54854;BME280;40747;49.480;8.658;2022-12-10T09:19:08;99525.63;;;0.33;100.00
54854;BME280;40747;49.480;8.658;2022-12-10T09:21:34;99516.94;;;0.54;100.00
54854;BME280;40747;49.480;8.658;2022-12-10T09:24:00;99522.13;;;0.48;100.00
54854;BME280;40747;49.480;8.658;2022-12-10T09:26:25;99514.38;;;0.46;100.00
54854;BME280;40747;49.480;8.658;2022-12-10T09:28:51;99534.19;;;0.64;100.00
54854;BME280;40747;49.480;8.658;2022-12-10T09:31:18;99534.16;;;0.72;100.00
54854;BME280;40747;49.480;8.658;2022-12-10T09:33:45;99533.28;;;0.75;100.00
54854;BME280;40747;49.480;8.658;2022-12-10T09:36:12;99539.34;;;0.72;100.00
54854;BME280;40747;49.480;8.658;2022-12-10T09:38:39;99538.50;;;0.67;100.00
54854;BME280;40747;49.480;8.658;2022-12-10T09:41:20;99529.00;;;0.69;100.00
54854;BME280;40747;49.480;8.658;2022-12-10T09:44:05;99528.09;;;0.79;100.00
54854;BME280;40747;49.480;8.658;2022-12-10T09:46:44;99493.59;;;0.62;100.00
54854;BME280;40747;49.480;8.658;2022-12-10T09:49:25;99529.75;;;0.97;100.00
54854;BME280;40747;49.480;8.658;2022-12-10T09:51:57;99541.81;;;1.06;100.00
54854;BME280;40747;49.480;8.658;2022-12-10T09:54:48;99535.75;;;1.09;100.00
54854;BME280;40747;49.480;8.658;2022-12-10T09:57:22;99532.25;;;1.19;100.00
54854;BME280;40747;49.480;8.658;2022-12-10T09:59:50;99531.38;;;1.22;100.00
54854;BME280;40747;49.480;8.658;2022-12-10T10:02:26;99533.03;;;1.29;99.53
54854;BME280;40747;49.480;8.658;2022-12-10T10:05:10;99486.47;;;1.07;99.73
54854;BME280;40747;49.480;8.658;2022-12-10T10:07:47;99523.47;;;1.40;98.84
54854;BME280;40747;49.480;8.658;2022-12-10T10:12:46;99529.56;;;1.35;99.05
54854;BME280;40747;49.480;8.658;2022-12-10T10:15:18;99526.09;;;1.34;98.98
54854;BME280;40747;49.480;8.658;2022-12-10T10:17:46;99526.94;;;1.38;99.16
54854;BME280;40747;49.480;8.658;2022-12-10T10:20:14;99530.38;;;1.41;99.01
54854;BME280;40747;49.480;8.658;2022-12-10T10:22:40;99517.44;;;1.38;98.95
54854;BME280;40747;49.480;8.658;2022-12-10T10:25:13;99527.59;;;1.71;97.83
54854;BME280;40747;49.480;8.658;2022-12-10T10:27:40;99514.72;;;1.52;97.64
54854;BME280;40747;49.480;8.658;2022-12-10T10:30:06;99534.59;;;1.58;97.94
54854;BME280;40747;49.480;8.658;2022-12-10T10:35:04;99512.81;;;1.77;96.53
54854;BME280;40747;49.480;8.658;2022-12-10T10:37:40;99533.53;;;1.88;96.40
54854;BME280;40747;49.480;8.658;2022-12-10T10:40:06;99540.44;;;1.91;96.49
54854;BME280;40747;49.480;8.658;2022-12-10T10:42:45;99539.59;;;1.84;96.61
54854;BME280;40747;49.480;8.658;2022-12-10T10:48:11;99544.03;;;1.70;96.08
54854;BME280;40747;49.480;8.658;2022-12-10T10:50:39;99549.22;;;1.73;96.95
54854;BME280;40747;49.480;8.658;2022-12-10T10:53:21;99544.81;;;1.83;95.53
54854;BME280;40747;49.480;8.658;2022-12-10T10:55:46;99543.00;;;1.92;95.80
54854;BME280;40747;49.480;8.658;2022-12-10T10:58:22;99540.53;;;1.74;95.26
54854;BME280;40747;49.480;8.658;2022-12-10T11:00:57;99542.25;;;1.79;95.92
54854;BME280;40747;49.480;8.658;2022-12-10T11:03:24;99549.00;;;2.01;94.91
54854;BME280;40747;49.480;8.658;2022-12-10T11:05:50;99519.75;;;1.77;95.67
54854;BME280;40747;49.480;8.658;2022-12-10T11:08:19;99553.47;;;1.82;96.47
54854;BME280;40747;49.480;8.658;2022-12-10T11:10:58;99551.72;;;1.84;96.25
54854;BME280;40747;49.480;8.658;2022-12-10T11:13:32;99559.63;;;1.68;96.56
54854;BME280;40747;49.480;8.658;2022-12-10T11:16:16;99550.88;;;1.83;96.93
54854;BME280;40747;49.480;8.658;2022-12-10T11:21:19;99544.69;;;1.98;96.61
54854;BME280;40747;49.480;8.658;2022-12-10T11:23:53;99547.34;;;1.90;96.22
54854;BME280;40747;49.480;8.658;2022-12-10T11:26:38;99553.47;;;1.85;95.50
54854;BME280;40747;49.480;8.658;2022-12-10T11:34:35;99556.91;;;1.88;97.25
54854;BME280;40747;49.480;8.658;2022-12-10T11:37:38;99549.06;;;1.93;96.74
54854;BME280;40747;49.480;8.658;2022-12-10T11:49:06;99553.06;;;2.31;94.68
54854;BME280;40747;49.480;8.658;2022-12-10T11:57:03;99542.03;;;2.07;95.07
54854;BME280;40747;49.480;8.658;2022-12-10T11:59:43;99557.56;;;2.12;94.11
54854;BME280;40747;49.480;8.658;2022-12-10T12:03:14;99562.75;;;2.13;95.46
54854;BME280;40747;49.480;8.658;2022-12-10T12:05:36;99554.19;;;2.01;95.68
54854;BME280;40747;49.480;8.658;2022-12-10T12:16:55;99570.84;;;1.73;94.90
54854;BME280;40747;49.480;8.658;2022-12-10T12:19:36;99551.78;;;1.77;95.39
54854;BME280;40747;49.480;8.658;2022-12-10T12:22:30;99560.34;;;1.89;94.96
54854;BME280;40747;49.480;8.658;2022-12-10T12:25:32;99569.78;;;1.99;94.16
54854;BME280;40747;49.480;8.658;2022-12-10T12:28:11;99568.97;;;1.97;94.55
54854;BME280;40747;49.480;8.658;2022-12-10T12:30:39;99578.31;;;2.17;93.92
54854;BME280;40747;49.480;8.658;2022-12-10T12:33:38;99567.94;;;2.17;93.93
54854;BME280;40747;49.480;8.658;2022-12-10T12:36:14;99574.72;;;2.30;93.31
54854;BME280;40747;49.480;8.658;2022-12-10T12:38:51;99572.00;;;2.44;92.89
54854;BME280;40747;49.480;8.658;2022-12-10T12:41:32;99561.00;;;2.19;93.11
54854;BME280;40747;49.480;8.658;2022-12-10T12:46:44;99575.72;;;2.13;94.02
54854;BME280;40747;49.480;8.658;2022-12-10T12:49:15;99580.91;;;2.17;93.47
54854;BME280;40747;49.480;8.658;2022-12-10T12:51:52;99576.69;;;2.05;94.65
54854;BME280;40747;49.480;8.658;2022-12-10T12:54:19;99575.78;;;2.09;95.02
54854;BME280;40747;49.480;8.658;2022-12-10T13:02:06;99568.06;;;2.01;95.06
54854;BME280;40747;49.480;8.658;2022-12-10T13:04:32;99598.34;;;2.02;93.40
54854;BME280;40747;49.480;8.658;2022-12-10T13:10:09;99588.69;;;2.18;93.96
54854;BME280;40747;49.480;8.658;2022-12-10T13:13:16;99586.09;;;2.18;93.48
54854;BME280;40747;49.480;8.658;2022-12-10T13:15:46;99606.09;;;2.07;94.38
54854;BME280;40747;49.480;8.658;2022-12-10T13:20:51;99608.78;;;1.96;93.59
54854;BME280;40747;49.480;8.658;2022-12-10T13:33:49;99617.34;;;2.10;93.38
54854;BME280;40747;49.480;8.658;2022-12-10T13:36:20;99613.13;;;1.94;92.49
54854;BME280;40747;49.480;8.658;2022-12-10T13:41:33;99620.84;;;2.03;92.95
54854;BME280;40747;49.480;8.658;2022-12-10T13:50:06;99632.25;;;1.82;92.52
54854;BME280;40747;49.480;8.658;2022-12-10T13:55:34;99637.53;;;1.68;92.55
54854;BME280;40747;49.480;8.658;2022-12-10T14:01:00;99641.84;;;1.66;93.11
54854;BME280;40747;49.480;8.658;2022-12-10T14:08:35;99662.56;;;1.78;92.51
54854;BME280;40747;49.480;8.658;2022-12-10T14:11:05;99675.59;;;1.71;92.50
54854;BME280;40747;49.480;8.658;2022-12-10T14:13:40;99661.78;;;1.55;92.50
54854;BME280;40747;49.480;8.658;2022-12-10T14:16:10;99679.94;;;1.61;92.32
54854;BME280;40747;49.480;8.658;2022-12-10T14:18:37;99675.66;;;1.54;92.76
54854;BME280;40747;49.480;8.658;2022-12-10T14:21:08;99673.09;;;1.47;93.66
54854;BME280;40747;49.480;8.658;2022-12-10T14:23:34;99680.00;;;1.45;93.85
54854;BME280;40747;49.480;8.658;2022-12-10T14:26:27;99679.16;;;1.42;94.19
54854;BME280;40747;49.480;8.658;2022-12-10T14:31:34;99680.97;;;1.18;94.97
54854;BME280;40747;49.480;8.658;2022-12-10T14:34:05;99680.13;;;1.11;94.74
54854;BME280;40747;49.480;8.658;2022-12-10T14:36:35;99682.72;;;1.07;95.70
54854;BME280;40747;49.480;8.658;2022-12-10T14:39:02;99687.91;;;1.13;95.71
54854;BME280;40747;49.480;8.658;2022-12-10T14:41:30;99669.78;;;0.97;95.71
54854;BME280;40747;49.480;8.658;2022-12-10T14:44:02;99692.25;;;1.02;96.41
54854;BME280;40747;49.480;8.658;2022-12-10T14:46:30;99693.97;;;1.00;96.28
54854;BME280;40747;49.480;8.658;2022-12-10T14:48:56;99697.44;;;1.00;96.84
54854;BME280;40747;49.480;8.658;2022-12-10T14:51:24;99694.84;;;0.97;96.83